Time;durP1;ratioP1;P1;durP2;ratioP2;P2;SDS_P1;SDS_P2;PMS_P1;PMS_P2;Temp;Humidity;BMP_temperature;BMP_pressure;BME280_temperature;BME280_humidity;BME280_pressure;Samples;Min_cycle;Max_cycle;Signal;HPM_P1;HPM_P2
2022/03/06 00:01:20;;;;;;;27.25;17.73;;;;;;;;;;5068684;28;21950;-72
2022/03/06 00:03:45;;;;;;;28.20;17.95;;;;;;;;;;5068353;28;20092;-69
2022/03/06 00:06:13;;;;;;;29.33;17.60;;;;;;;;;;5068756;28;20031;-69
2022/03/06 00:08:38;;;;;;;33.40;18.50;;;;;;;;;;5068963;28;20016;-68
2022/03/06 00:11:04;;;;;;;26.98;17.08;;;;;;;;;;5069085;28;20526;-69
2022/03/06 00:13:33;;;;;;;28.50;18.05;;;;;;;;;;5064248;28;20043;-68
2022/03/06 00:15:59;;;;;;;28.30;18.65;;;;;;;;;;5069259;28;20034;-68
2022/03/06 00:18:24;;;;;;;28.50;18.25;;;;;;;;;;5052273;28;20024;-68
2022/03/06 00:20:55;;;;;;;27.40;17.33;;;;;;;;;;5069455;28;20035;-67
2022/03/06 00:23:24;;;;;;;27.73;17.92;;;;;;;;;;5051383;28;20093;-68
2022/03/06 00:25:49;;;;;;;27.73;17.98;;;;;;;;;;5068928;28;20237;-68
2022/03/06 00:28:14;;;;;;;27.58;17.67;;;;;;;;;;5052439;28;20503;-68
2022/03/06 00:30:42;;;;;;;26.75;16.85;;;;;;;;;;5069566;28;20085;-68
2022/03/06 00:33:07;;;;;;;30.38;17.73;;;;;;;;;;5067975;28;20406;-69
2022/03/06 00:35:35;;;;;;;28.13;17.95;;;;;;;;;;5069878;28;20549;-68
2022/03/06 00:38:01;;;;;;;26.70;17.88;;;;;;;;;;5050965;28;20040;-68
2022/03/06 00:40:26;;;;;;;25.38;17.45;;;;;;;;;;5069182;28;20564;-68
2022/03/06 00:42:52;;;;;;;28.30;18.20;;;;;;;;;;5066631;28;20039;-68
2022/03/06 00:45:19;;;;;;;27.52;17.50;;;;;;;;;;5069463;28;20129;-68
2022/03/06 00:47:51;;;;;;;26.35;18.00;;;;;;;;;;5067391;28;20024;-68
2022/03/06 00:50:16;;;;;;;27.52;18.40;;;;;;;;;;5066637;28;20165;-68
2022/03/06 00:52:42;;;;;;;28.23;18.88;;;;;;;;;;5068104;28;20081;-69
2022/03/06 00:55:08;;;;;;;26.35;18.70;;;;;;;;;;5066854;28;20112;-69
2022/03/06 00:57:33;;;;;;;26.65;18.50;;;;;;;;;;5067344;28;20413;-68
2022/03/06 01:00:04;;;;;;;28.23;18.15;;;;;;;;;;5067350;28;20028;-68
2022/03/06 01:02:30;;;;;;;25.98;17.80;;;;;;;;;;5068405;28;20034;-69
2022/03/06 01:04:56;;;;;;;27.40;18.60;;;;;;;;;;5068344;28;20131;-68
2022/03/06 01:07:24;;;;;;;27.52;18.15;;;;;;;;;;5066223;28;20104;-67
2022/03/06 01:09:49;;;;;;;26.83;18.25;;;;;;;;;;5067822;28;20385;-68
2022/03/06 01:12:15;;;;;;;26.63;17.75;;;;;;;;;;5067019;28;20082;-68
2022/03/06 01:14:40;;;;;;;25.42;17.77;;;;;;;;;;5051911;28;20550;-68
2022/03/06 01:17:06;;;;;;;26.23;17.20;;;;;;;;;;5067745;28;21901;-68
2022/03/06 01:19:34;;;;;;;25.27;17.60;;;;;;;;;;5067021;28;20031;-71
2022/03/06 01:22:00;;;;;;;25.42;18.02;;;;;;;;;;5062329;28;20059;-72
2022/03/06 01:24:28;;;;;;;26.58;18.20;;;;;;;;;;5066453;28;20028;-71
2022/03/06 01:26:54;;;;;;;24.63;17.23;;;;;;;;;;5065394;28;20031;-71
2022/03/06 01:29:22;;;;;;;23.75;17.65;;;;;;;;;;5063847;28;20028;-72
2022/03/06 01:31:49;;;;;;;24.52;16.98;;;;;;;;;;5067514;28;20522;-71
2022/03/06 01:34:17;;;;;;;24.98;17.20;;;;;;;;;;5048368;28;20122;-71
2022/03/06 01:36:42;;;;;;;21.52;16.13;;;;;;;;;;5050462;28;20581;-71
2022/03/06 01:39:08;;;;;;;24.35;16.50;;;;;;;;;;5061775;28;20505;-72
2022/03/06 01:41:34;;;;;;;21.40;16.17;;;;;;;;;;5033420;28;20040;-71
2022/03/06 01:43:59;;;;;;;21.13;15.50;;;;;;;;;;5066447;28;21887;-72
2022/03/06 01:46:24;;;;;;;21.75;16.20;;;;;;;;;;5066771;28;20118;-71
2022/03/06 01:48:50;;;;;;;24.15;15.95;;;;;;;;;;5065965;28;20047;-71
2022/03/06 01:51:15;;;;;;;23.80;16.30;;;;;;;;;;5066502;28;20048;-71
2022/03/06 01:53:43;;;;;;;22.17;15.85;;;;;;;;;;5066072;28;20030;-72
2022/03/06 01:56:11;;;;;;;23.95;15.60;;;;;;;;;;5066987;28;20032;-72
2022/03/06 01:58:40;;;;;;;21.83;16.13;;;;;;;;;;5066138;28;20039;-72
2022/03/06 02:01:05;;;;;;;23.80;15.95;;;;;;;;;;5067315;28;20620;-71
2022/03/06 02:03:31;;;;;;;22.33;15.70;;;;;;;;;;5066321;28;20115;-71
2022/03/06 02:05:57;;;;;;;22.08;15.93;;;;;;;;;;5066562;28;20028;-71
2022/03/06 02:08:22;;;;;;;22.15;15.63;;;;;;;;;;5066645;28;20115;-71
2022/03/06 02:10:50;;;;;;;25.40;15.68;;;;;;;;;;5054472;28;20126;-71
2022/03/06 02:13:16;;;;;;;21.17;15.07;;;;;;;;;;5069992;28;20128;-72
2022/03/06 02:15:47;;;;;;;20.65;14.93;;;;;;;;;;5070131;28;20115;-71
2022/03/06 02:18:12;;;;;;;20.77;15.65;;;;;;;;;;5070057;28;20024;-72
2022/03/06 02:20:38;;;;;;;22.02;15.07;;;;;;;;;;5051851;28;20664;-72
2022/03/06 02:23:05;;;;;;;19.38;14.88;;;;;;;;;;5065437;28;20519;-71
2022/03/06 02:25:34;;;;;;;18.10;14.00;;;;;;;;;;5074235;28;20513;-71
2022/03/06 02:28:00;;;;;;;20.40;14.27;;;;;;;;;;5069747;28;20024;-71
2022/03/06 02:30:30;;;;;;;19.67;14.35;;;;;;;;;;5070746;28;20051;-71
2022/03/06 02:32:58;;;;;;;19.08;13.60;;;;;;;;;;5070289;28;20854;-70
2022/03/06 02:35:25;;;;;;;19.20;13.65;;;;;;;;;;5065455;28;20090;-72
2022/03/06 02:37:54;;;;;;;20.83;14.77;;;;;;;;;;5069585;28;20415;-72
2022/03/06 02:40:21;;;;;;;19.27;14.18;;;;;;;;;;5069776;28;20024;-72
2022/03/06 02:42:47;;;;;;;20.60;14.18;;;;;;;;;;5084734;28;20285;-72
2022/03/06 02:45:19;;;;;;;19.83;14.48;;;;;;;;;;5070380;28;20027;-70
2022/03/06 02:47:45;;;;;;;18.02;13.98;;;;;;;;;;5052983;28;20028;-71
2022/03/06 02:50:13;;;;;;;19.08;13.52;;;;;;;;;;5069814;28;20027;-71
2022/03/06 02:52:38;;;;;;;18.67;14.38;;;;;;;;;;5069348;28;20052;-72
2022/03/06 02:55:05;;;;;;;16.90;12.98;;;;;;;;;;5068239;28;20484;-71
2022/03/06 02:57:30;;;;;;;20.13;13.15;;;;;;;;;;5069700;28;20128;-72
2022/03/06 02:59:57;;;;;;;18.33;13.18;;;;;;;;;;5069670;28;20051;-71
2022/03/06 03:02:23;;;;;;;21.67;13.10;;;;;;;;;;5064481;28;22006;-71
2022/03/06 03:04:49;;;;;;;17.73;13.43;;;;;;;;;;5069855;28;20093;-71
2022/03/06 03:07:15;;;;;;;18.88;13.85;;;;;;;;;;5069561;28;20349;-71
2022/03/06 03:09:40;;;;;;;18.90;13.57;;;;;;;;;;5068864;28;20032;-71
2022/03/06 03:12:09;;;;;;;21.83;13.70;;;;;;;;;;5069376;28;20035;-71
2022/03/06 03:14:35;;;;;;;17.33;13.20;;;;;;;;;;5068792;28;20059;-71
2022/03/06 03:17:02;;;;;;;19.33;13.75;;;;;;;;;;5070314;28;20111;-71
2022/03/06 03:19:27;;;;;;;19.20;13.70;;;;;;;;;;5066248;28;20921;-72
2022/03/06 03:21:56;;;;;;;19.92;13.88;;;;;;;;;;5069244;28;20053;-72
2022/03/06 03:24:21;;;;;;;20.90;13.85;;;;;;;;;;5066994;28;20020;-71
2022/03/06 03:26:47;;;;;;;20.15;14.27;;;;;;;;;;5068890;28;20055;-72
2022/03/06 03:29:13;;;;;;;20.50;14.07;;;;;;;;;;5069571;28;20063;-70
2022/03/06 03:31:38;;;;;;;20.20;14.38;;;;;;;;;;5069360;28;20123;-70
2022/03/06 03:34:04;;;;;;;21.50;15.88;;;;;;;;;;5068664;28;20058;-71
2022/03/06 03:36:29;;;;;;;24.65;15.52;;;;;;;;;;5068826;28;20131;-71
2022/03/06 03:38:54;;;;;;;24.08;16.25;;;;;;;;;;5069054;28;20036;-71
2022/03/06 03:41:22;;;;;;;23.40;16.27;;;;;;;;;;5068261;28;20062;-70
2022/03/06 03:43:50;;;;;;;25.42;16.27;;;;;;;;;;5069301;28;20036;-71
2022/03/06 03:46:15;;;;;;;24.98;16.95;;;;;;;;;;5069071;28;20411;-71
2022/03/06 03:48:41;;;;;;;24.67;17.10;;;;;;;;;;5068894;28;20032;-71
2022/03/06 03:51:06;;;;;;;21.33;16.20;;;;;;;;;;5068678;28;20051;-72
2022/03/06 03:53:32;;;;;;;24.00;17.45;;;;;;;;;;5066747;28;20079;-72
2022/03/06 03:55:57;;;;;;;26.33;18.00;;;;;;;;;;5069076;28;20893;-71
2022/03/06 03:58:23;;;;;;;31.40;18.50;;;;;;;;;;5068277;28;20127;-71
2022/03/06 04:00:54;;;;;;;27.35;18.42;;;;;;;;;;5084243;28;20058;-72
2022/03/06 04:03:20;;;;;;;28.75;18.75;;;;;;;;;;5067979;28;20036;-71
2022/03/06 04:05:45;;;;;;;26.52;19.50;;;;;;;;;;5068692;28;20032;-71
2022/03/06 04:08:11;;;;;;;27.08;19.20;;;;;;;;;;5068449;28;20021;-72
2022/03/06 04:10:36;;;;;;;26.73;18.65;;;;;;;;;;5068367;28;20038;-71
2022/03/06 04:13:01;;;;;;;27.83;19.08;;;;;;;;;;5068414;28;20033;-71
2022/03/06 04:15:26;;;;;;;27.00;19.45;;;;;;;;;;5063327;28;20032;-71
2022/03/06 04:17:54;;;;;;;25.48;18.58;;;;;;;;;;5068006;28;20031;-70
2022/03/06 04:20:26;;;;;;;26.70;18.83;;;;;;;;;;5067922;28;20032;-71
2022/03/06 04:22:52;;;;;;;27.08;19.75;;;;;;;;;;5067498;28;20463;-71
2022/03/06 04:25:18;;;;;;;27.52;19.02;;;;;;;;;;5068062;28;20235;-71
2022/03/06 04:27:46;;;;;;;29.35;19.85;;;;;;;;;;5068473;28;20503;-71
2022/03/06 04:30:11;;;;;;;30.70;19.90;;;;;;;;;;5068768;28;20024;-71
2022/03/06 04:32:39;;;;;;;27.85;19.45;;;;;;;;;;5067732;28;20165;-70
2022/03/06 04:35:05;;;;;;;28.88;19.55;;;;;;;;;;5068123;28;20054;-71
2022/03/06 04:37:31;;;;;;;32.63;19.13;;;;;;;;;;5068213;28;20046;-71
2022/03/06 04:39:57;;;;;;;28.55;18.48;;;;;;;;;;5068243;28;20034;-71
2022/03/06 04:42:22;;;;;;;26.15;18.17;;;;;;;;;;5065463;28;20024;-71
2022/03/06 04:44:48;;;;;;;24.88;17.70;;;;;;;;;;5065367;28;20032;-70
2022/03/06 04:47:13;;;;;;;27.08;18.13;;;;;;;;;;5067909;28;20088;-71
2022/03/06 04:49:39;;;;;;;25.23;17.52;;;;;;;;;;5062094;28;20065;-72
2022/03/06 04:52:05;;;;;;;27.10;17.38;;;;;;;;;;5065246;28;20859;-72
2022/03/06 04:54:30;;;;;;;27.25;16.88;;;;;;;;;;5062676;28;20121;-72
2022/03/06 04:57:00;;;;;;;23.27;16.63;;;;;;;;;;5067646;28;21820;-72
2022/03/06 04:59:26;;;;;;;27.98;15.80;;;;;;;;;;5062300;28;20024;-71
2022/03/06 05:01:52;;;;;;;24.05;15.82;;;;;;;;;;5067183;28;20039;-71
2022/03/06 05:04:19;;;;;;;22.17;14.90;;;;;;;;;;5067137;28;20165;-71
2022/03/06 05:06:47;;;;;;;21.45;14.55;;;;;;;;;;5066785;28;20028;-71
2022/03/06 05:09:13;;;;;;;19.02;13.23;;;;;;;;;;5067160;28;22523;-72
2022/03/06 05:11:38;;;;;;;22.30;13.75;;;;;;;;;;5067456;28;20469;-71
2022/03/06 05:14:06;;;;;;;20.33;13.35;;;;;;;;;;5066785;28;20051;-71
2022/03/06 05:16:31;;;;;;;19.95;13.13;;;;;;;;;;5061687;28;20214;-71
2022/03/06 05:18:57;;;;;;;21.25;13.73;;;;;;;;;;5063505;28;20144;-72
2022/03/06 05:21:23;;;;;;;21.08;13.48;;;;;;;;;;5067451;28;20044;-72
2022/03/06 05:23:50;;;;;;;21.05;13.90;;;;;;;;;;5066540;28;20034;-72
2022/03/06 05:26:16;;;;;;;20.33;13.00;;;;;;;;;;5062614;28;20076;-72
2022/03/06 05:28:41;;;;;;;18.67;13.43;;;;;;;;;;5061735;28;20037;-71
2022/03/06 05:31:07;;;;;;;19.88;12.65;;;;;;;;;;5066187;28;20035;-71
2022/03/06 05:33:32;;;;;;;20.38;13.52;;;;;;;;;;5066516;28;20511;-71
2022/03/06 05:35:57;;;;;;;19.70;13.00;;;;;;;;;;5067233;28;20069;-72
2022/03/06 05:38:23;;;;;;;19.10;13.25;;;;;;;;;;5067490;28;20859;-72
2022/03/06 05:40:48;;;;;;;21.80;12.30;;;;;;;;;;5066330;28;20111;-72
2022/03/06 05:43:14;;;;;;;17.40;11.73;;;;;;;;;;5065944;28;20049;-71
2022/03/06 05:45:40;;;;;;;20.13;12.70;;;;;;;;;;5065743;28;20036;-69
2022/03/06 05:48:05;;;;;;;18.00;12.40;;;;;;;;;;5068059;28;20028;-68
2022/03/06 05:50:30;;;;;;;18.67;13.07;;;;;;;;;;5052072;28;20077;-68
2022/03/06 05:52:56;;;;;;;17.98;12.68;;;;;;;;;;5061936;28;20048;-69
2022/03/06 05:55:21;;;;;;;18.23;12.13;;;;;;;;;;5070426;28;20039;-69
2022/03/06 05:57:47;;;;;;;19.90;12.48;;;;;;;;;;5070157;28;20575;-68
2022/03/06 06:00:13;;;;;;;19.02;12.35;;;;;;;;;;5067786;28;20157;-68
2022/03/06 06:02:39;;;;;;;19.33;12.98;;;;;;;;;;5067141;28;20084;-68
2022/03/06 06:05:05;;;;;;;17.20;11.85;;;;;;;;;;5068251;28;20131;-68
2022/03/06 06:07:31;;;;;;;16.23;11.90;;;;;;;;;;5068376;28;20077;-69
2022/03/06 06:09:56;;;;;;;17.00;11.60;;;;;;;;;;5066788;28;20033;-68
2022/03/06 06:12:25;;;;;;;17.77;12.02;;;;;;;;;;5068663;28;20057;-69
2022/03/06 06:14:50;;;;;;;16.92;12.15;;;;;;;;;;5068281;28;20036;-67
2022/03/06 06:17:16;;;;;;;16.10;11.35;;;;;;;;;;5067765;28;20487;-68
2022/03/06 06:19:41;;;;;;;16.52;10.95;;;;;;;;;;5067743;28;20051;-69
2022/03/06 06:22:07;;;;;;;15.85;10.70;;;;;;;;;;5068591;28;20717;-69
2022/03/06 06:24:32;;;;;;;16.63;10.90;;;;;;;;;;5067832;28;20060;-68
2022/03/06 06:26:58;;;;;;;15.32;10.30;;;;;;;;;;5068160;28;20725;-68
2022/03/06 06:29:23;;;;;;;14.93;10.18;;;;;;;;;;5066937;28;20533;-68
2022/03/06 06:31:50;;;;;;;15.05;9.50;;;;;;;;;;5068039;28;20021;-69
2022/03/06 06:34:15;;;;;;;12.93;9.43;;;;;;;;;;5049103;28;20697;-69
2022/03/06 06:36:41;;;;;;;13.15;9.63;;;;;;;;;;5068242;28;20040;-68
2022/03/06 06:39:09;;;;;;;13.13;9.02;;;;;;;;;;5067302;28;20491;-68
2022/03/06 06:41:34;;;;;;;13.82;9.15;;;;;;;;;;5066592;28;20077;-69
2022/03/06 06:44:00;;;;;;;12.45;8.57;;;;;;;;;;5067963;28;20035;-69
2022/03/06 06:46:30;;;;;;;12.52;8.48;;;;;;;;;;5068339;28;20035;-69
2022/03/06 06:48:55;;;;;;;13.50;8.20;;;;;;;;;;5066831;28;20036;-68
2022/03/06 06:51:21;;;;;;;12.48;7.38;;;;;;;;;;5066645;28;20044;-69
2022/03/06 06:53:46;;;;;;;10.52;7.10;;;;;;;;;;5066410;28;20028;-68
2022/03/06 06:56:12;;;;;;;10.50;6.03;;;;;;;;;;5068806;28;20506;-68
2022/03/06 06:58:37;;;;;;;9.43;6.55;;;;;;;;;;5070368;28;20036;-68
2022/03/06 07:01:05;;;;;;;7.78;5.57;;;;;;;;;;5071534;28;20775;-68
2022/03/06 07:03:31;;;;;;;9.98;6.03;;;;;;;;;;5068833;28;20701;-68
2022/03/06 07:05:59;;;;;;;7.75;5.35;;;;;;;;;;5069214;28;20059;-69
2022/03/06 07:08:26;;;;;;;12.45;5.78;;;;;;;;;;5069452;28;20036;-69
2022/03/06 07:10:52;;;;;;;9.77;5.35;;;;;;;;;;5071056;28;20020;-68
2022/03/06 07:13:17;;;;;;;6.40;4.97;;;;;;;;;;5066788;28;20388;-68
2022/03/06 07:15:43;;;;;;;7.38;4.70;;;;;;;;;;5071368;28;20092;-68
2022/03/06 07:18:09;;;;;;;11.35;4.97;;;;;;;;;;5069312;28;20036;-69
2022/03/06 07:20:34;;;;;;;8.65;4.70;;;;;;;;;;5071316;28;20550;-68
2022/03/06 07:23:00;;;;;;;6.47;4.85;;;;;;;;;;5070278;28;20487;-69
2022/03/06 07:25:25;;;;;;;10.05;5.00;;;;;;;;;;5066292;28;20440;-70
2022/03/06 07:27:50;;;;;;;8.30;4.80;;;;;;;;;;5070739;28;20249;-69
2022/03/06 07:30:16;;;;;;;6.07;4.63;;;;;;;;;;5071067;28;20028;-69
2022/03/06 07:32:52;;;;;;;9.55;5.28;;;;;;;;;;5048537;28;20032;-69
2022/03/06 07:35:18;;;;;;;8.27;5.03;;;;;;;;;;5071346;28;20278;-69
2022/03/06 07:37:44;;;;;;;6.97;5.10;;;;;;;;;;5070396;28;20051;-68
2022/03/06 07:40:10;;;;;;;10.43;5.82;;;;;;;;;;5069216;28;20097;-69
2022/03/06 07:42:35;;;;;;;9.52;6.22;;;;;;;;;;5069988;28;20031;-68
2022/03/06 07:45:01;;;;;;;9.57;6.80;;;;;;;;;;5070894;28;20152;-69
2022/03/06 07:47:26;;;;;;;10.80;6.80;;;;;;;;;;5069739;28;20032;-69
2022/03/06 07:49:51;;;;;;;11.07;7.40;;;;;;;;;;5070530;28;20032;-70
2022/03/06 07:52:17;;;;;;;13.70;8.85;;;;;;;;;;5052398;28;20048;-70
2022/03/06 07:54:42;;;;;;;10.98;7.85;;;;;;;;;;5051433;28;20384;-68
2022/03/06 07:57:10;;;;;;;13.38;8.40;;;;;;;;;;5069808;28;20097;-69
2022/03/06 07:59:36;;;;;;;14.70;7.80;;;;;;;;;;5069435;28;20043;-69
2022/03/06 08:02:05;;;;;;;12.02;7.95;;;;;;;;;;5069278;28;22098;-68
2022/03/06 08:04:30;;;;;;;13.43;8.60;;;;;;;;;;5069022;28;20225;-69
2022/03/06 08:06:55;;;;;;;13.35;8.60;;;;;;;;;;5068720;28;20647;-68
2022/03/06 08:09:24;;;;;;;13.02;8.45;;;;;;;;;;5070000;28;20598;-69
2022/03/06 08:11:51;;;;;;;16.48;8.38;;;;;;;;;;5068445;28;20512;-68
2022/03/06 08:14:19;;;;;;;12.57;8.18;;;;;;;;;;5067749;28;20119;-69
2022/03/06 08:16:45;;;;;;;15.05;8.35;;;;;;;;;;5051591;28;20462;-68
2022/03/06 08:19:10;;;;;;;12.20;8.57;;;;;;;;;;5069554;28;20278;-69
2022/03/06 08:21:36;;;;;;;22.13;12.88;;;;;;;;;;5061994;28;20047;-69
2022/03/06 08:24:01;;;;;;;14.98;8.82;;;;;;;;;;5069708;28;20108;-68
2022/03/06 08:26:29;;;;;;;18.85;9.25;;;;;;;;;;5069216;28;20034;-67
2022/03/06 08:28:55;;;;;;;10.38;8.05;;;;;;;;;;5067027;28;22448;-67
2022/03/06 08:31:20;;;;;;;11.27;8.02;;;;;;;;;;5069792;28;20042;-69
2022/03/06 08:33:46;;;;;;;11.35;7.50;;;;;;;;;;5069074;28;20486;-68
2022/03/06 08:36:12;;;;;;;10.65;7.65;;;;;;;;;;5068396;28;20036;-68
2022/03/06 08:38:38;;;;;;;10.40;7.18;;;;;;;;;;5068638;28;20479;-69
2022/03/06 08:41:06;;;;;;;11.45;7.47;;;;;;;;;;5068308;28;20024;-68
2022/03/06 08:43:32;;;;;;;9.27;6.70;;;;;;;;;;5068964;28;20115;-67
2022/03/06 08:45:58;;;;;;;10.40;6.63;;;;;;;;;;5068070;28;20030;-68
2022/03/06 08:48:28;;;;;;;9.88;6.13;;;;;;;;;;5066831;28;20468;-68
2022/03/06 08:50:53;;;;;;;10.20;6.30;;;;;;;;;;5068838;28;20440;-68
2022/03/06 08:53:19;;;;;;;8.95;5.85;;;;;;;;;;5067923;28;20059;-68
2022/03/06 08:55:44;;;;;;;8.80;5.60;;;;;;;;;;5051933;28;20081;-68
2022/03/06 08:58:10;;;;;;;9.23;4.93;;;;;;;;;;5068389;28;20110;-68
2022/03/06 09:00:36;;;;;;;7.65;5.05;;;;;;;;;;5068288;28;20159;-69
2022/03/06 09:03:01;;;;;;;10.90;4.50;;;;;;;;;;5068993;28;20028;-69
2022/03/06 09:05:26;;;;;;;8.80;4.63;;;;;;;;;;5066724;28;20020;-68
2022/03/06 09:07:52;;;;;;;8.80;4.80;;;;;;;;;;5069045;28;20119;-68
2022/03/06 09:10:17;;;;;;;8.20;4.53;;;;;;;;;;5067992;28;20032;-69
2022/03/06 09:12:43;;;;;;;5.30;3.85;;;;;;;;;;5068772;28;20218;-68
2022/03/06 09:15:08;;;;;;;7.95;3.90;;;;;;;;;;5069308;28;20152;-69
2022/03/06 09:17:34;;;;;;;5.45;3.83;;;;;;;;;;5067387;28;20024;-68
2022/03/06 09:20:02;;;;;;;6.63;3.97;;;;;;;;;;5067549;28;20036;-69
2022/03/06 09:22:28;;;;;;;6.28;3.63;;;;;;;;;;5068451;28;20068;-70
2022/03/06 09:24:53;;;;;;;6.85;4.35;;;;;;;;;;5068384;28;20057;-69
2022/03/06 09:27:19;;;;;;;9.65;4.22;;;;;;;;;;5068386;28;20039;-69
2022/03/06 09:29:44;;;;;;;7.05;4.20;;;;;;;;;;5068206;28;20488;-69
2022/03/06 09:32:12;;;;;;;6.50;4.03;;;;;;;;;;5067735;28;20024;-70
2022/03/06 09:34:39;;;;;;;7.28;4.15;;;;;;;;;;5069101;28;20126;-70
2022/03/06 09:37:05;;;;;;;7.07;4.15;;;;;;;;;;5068052;28;20127;-68
2022/03/06 09:39:33;;;;;;;6.53;3.80;;;;;;;;;;5068713;28;20085;-70
2022/03/06 09:41:58;;;;;;;6.85;3.45;;;;;;;;;;5068509;28;20047;-69
2022/03/06 09:44:25;;;;;;;5.85;3.08;;;;;;;;;;5068109;28;20613;-69
2022/03/06 09:46:52;;;;;;;6.68;3.05;;;;;;;;;;5068998;28;20028;-69
2022/03/06 09:49:18;;;;;;;9.05;3.28;;;;;;;;;;5067169;28;20032;-70
2022/03/06 09:51:46;;;;;;;5.95;2.72;;;;;;;;;;5068225;28;20373;-69
2022/03/06 09:54:12;;;;;;;4.85;2.95;;;;;;;;;;5067629;28;20051;-68
2022/03/06 09:56:40;;;;;;;5.40;3.13;;;;;;;;;;5067558;28;20028;-68
2022/03/06 09:59:06;;;;;;;6.45;2.90;;;;;;;;;;5067482;28;20040;-67
2022/03/06 10:01:31;;;;;;;5.32;2.90;;;;;;;;;;5067063;28;20035;-68
2022/03/06 10:04:18;;;;;;;5.97;3.25;;;;;;;;;;5065897;28;20536;-69
2022/03/06 10:06:56;;;;;;;7.70;3.08;;;;;;;;;;5067489;28;20085;-69
2022/03/06 10:09:24;;;;;;;6.72;3.72;;;;;;;;;;5068000;28;20039;-70
2022/03/06 10:11:52;;;;;;;8.35;3.53;;;;;;;;;;5064289;28;20200;-69
2022/03/06 10:14:34;;;;;;;8.70;4.68;;;;;;;;;;5067588;28;20040;-69
2022/03/06 10:16:59;;;;;;;;;;;;;;;;;;5067090;28;20028;-69
2022/03/06 10:19:43;;;;;;;7.20;3.55;;;;;;;;;;5067241;28;20288;-69
2022/03/06 10:22:12;;;;;;;4.65;3.60;;;;;;;;;;5066957;28;20625;-68
2022/03/06 10:24:44;;;;;;;6.80;3.80;;;;;;;;;;5066659;28;20618;-68
2022/03/06 10:27:10;;;;;;;6.13;3.63;;;;;;;;;;5066562;28;20035;-69
2022/03/06 10:29:35;;;;;;;6.32;3.28;;;;;;;;;;5068538;28;20047;-69
2022/03/06 10:32:04;;;;;;;6.40;3.80;;;;;;;;;;5070656;28;20080;-69
2022/03/06 10:34:36;;;;;;;7.90;3.60;;;;;;;;;;5065790;28;20169;-69
2022/03/06 10:37:05;;;;;;;5.68;3.38;;;;;;;;;;5071193;28;20104;-69
2022/03/06 10:39:41;;;;;;;5.95;3.25;;;;;;;;;;5070420;28;20775;-68
2022/03/06 10:42:08;;;;;;;7.05;3.42;;;;;;;;;;5068105;28;20360;-68
2022/03/06 10:44:46;;;;;;;6.18;3.05;;;;;;;;;;5070980;28;22588;-68
2022/03/06 10:47:12;;;;;;;4.25;2.90;;;;;;;;;;5070141;28;20028;-68
2022/03/06 10:49:37;;;;;;;6.25;3.40;;;;;;;;;;5070287;28;20027;-71
2022/03/06 10:52:19;;;;;;;5.78;3.40;;;;;;;;;;5064331;28;20251;-71
2022/03/06 10:54:52;;;;;;;6.25;3.10;;;;;;;;;;5070174;28;20043;-72
2022/03/06 10:57:19;;;;;;;5.30;3.00;;;;;;;;;;5070094;28;20196;-72
2022/03/06 10:59:45;;;;;;;4.95;2.90;;;;;;;;;;5069631;28;20408;-72
2022/03/06 11:02:12;;;;;;;7.07;2.85;;;;;;;;;;5070296;28;20062;-71
2022/03/06 11:04:40;;;;;;;6.43;2.90;;;;;;;;;;5062957;28;20028;-72
2022/03/06 11:07:05;;;;;;;4.03;2.90;;;;;;;;;;5069914;28;20047;-71
2022/03/06 11:09:33;;;;;;;4.88;2.70;;;;;;;;;;5069045;28;20028;-71
2022/03/06 11:11:59;;;;;;;5.00;2.50;;;;;;;;;;5070338;28;20118;-72
2022/03/06 11:14:25;;;;;;;5.47;2.88;;;;;;;;;;5069240;28;20074;-72
2022/03/06 11:16:50;;;;;;;6.82;3.00;;;;;;;;;;5070086;28;20040;-70
2022/03/06 11:19:16;;;;;;;5.82;3.08;;;;;;;;;;5067831;28;20089;-70
2022/03/06 11:21:43;;;;;;;5.20;2.75;;;;;;;;;;5069763;28;20040;-71
2022/03/06 11:24:15;;;;;;;6.70;3.30;;;;;;;;;;5068975;28;20378;-70
2022/03/06 11:26:58;;;;;;;4.20;2.67;;;;;;;;;;5069108;28;22169;-70
2022/03/06 11:29:29;;;;;;;4.90;2.55;;;;;;;;;;5068904;28;20028;-71
2022/03/06 11:31:57;;;;;;;6.47;2.92;;;;;;;;;;5069246;28;20320;-71
2022/03/06 11:34:24;;;;;;;5.93;2.78;;;;;;;;;;5052339;28;20040;-71
2022/03/06 11:36:50;;;;;;;6.35;2.65;;;;;;;;;;5069628;28;20033;-71
2022/03/06 11:39:28;;;;;;;5.45;2.78;;;;;;;;;;5068731;28;20024;-71
2022/03/06 11:41:56;;;;;;;8.88;2.95;;;;;;;;;;5068545;28;20084;-71
2022/03/06 11:44:32;;;;;;;4.68;2.50;;;;;;;;;;5068911;28;20028;-70
2022/03/06 11:47:00;;;;;;;3.92;2.47;;;;;;;;;;5069300;28;20042;-70
2022/03/06 11:49:36;;;;;;;6.10;2.38;;;;;;;;;;5063399;28;20085;-70
2022/03/06 11:52:01;;;;;;;4.35;2.50;;;;;;;;;;5068979;28;20047;-71
2022/03/06 11:54:40;;;;;;;4.72;2.70;;;;;;;;;;5047050;28;20040;-70
2022/03/06 11:57:08;;;;;;;4.63;2.60;;;;;;;;;;5069328;28;20054;-71
2022/03/06 11:59:35;;;;;;;5.00;2.60;;;;;;;;;;5069706;28;20100;-72
2022/03/06 12:02:08;;;;;;;5.70;2.45;;;;;;;;;;5067665;28;20443;-72
2022/03/06 12:04:37;;;;;;;5.53;2.60;;;;;;;;;;5068605;28;20580;-72
2022/03/06 12:07:06;;;;;;;4.65;2.40;;;;;;;;;;5068960;28;20020;-71
2022/03/06 12:09:33;;;;;;;4.85;2.60;;;;;;;;;;5069471;28;20062;-70
2022/03/06 12:12:09;;;;;;;4.57;2.50;;;;;;;;;;5069147;28;20128;-71
2022/03/06 12:14:39;;;;;;;5.38;2.47;;;;;;;;;;5068632;28;20416;-71
2022/03/06 12:17:06;;;;;;;5.70;2.50;;;;;;;;;;5062719;28;20031;-71
2022/03/06 12:19:35;;;;;;;5.15;2.50;;;;;;;;;;5067547;28;20088;-71
2022/03/06 12:22:09;;;;;;;5.85;2.40;;;;;;;;;;5068403;28;20032;-70
2022/03/06 12:24:34;;;;;;;5.22;2.85;;;;;;;;;;5067811;28;20123;-71
2022/03/06 12:27:09;;;;;;;4.18;2.40;;;;;;;;;;5068362;28;20047;-70
2022/03/06 12:29:46;;;;;;;4.97;2.92;;;;;;;;;;5067912;28;20652;-70
2022/03/06 12:32:31;;;;;;;7.68;3.38;;;;;;;;;;5068275;28;20229;-71
2022/03/06 12:34:56;;;;;;;5.95;2.80;;;;;;;;;;5068137;28;20085;-71
2022/03/06 12:37:23;;;;;;;6.70;2.85;;;;;;;;;;5067667;28;20058;-70
2022/03/06 12:39:48;;;;;;;5.80;2.95;;;;;;;;;;5068153;28;20036;-70
2022/03/06 12:42:13;;;;;;;4.93;2.72;;;;;;;;;;5067189;28;20419;-71
2022/03/06 12:44:44;;;;;;;4.72;2.97;;;;;;;;;;5065986;28;20043;-70
2022/03/06 12:47:10;;;;;;;7.35;3.00;;;;;;;;;;5067285;28;20073;-72
2022/03/06 12:49:41;;;;;;;4.57;2.90;;;;;;;;;;5067467;28;20479;-72
2022/03/06 12:52:08;;;;;;;4.20;2.60;;;;;;;;;;5061330;28;20071;-71
2022/03/06 12:54:36;;;;;;;5.50;2.80;;;;;;;;;;5068067;28;20581;-71
2022/03/06 12:57:03;;;;;;;6.00;3.00;;;;;;;;;;5067433;28;20034;-70
2022/03/06 12:59:29;;;;;;;6.60;2.90;;;;;;;;;;5067812;28;20069;-70
2022/03/06 13:01:54;;;;;;;6.05;3.00;;;;;;;;;;5050307;28;20486;-70
2022/03/06 13:04:22;;;;;;;4.95;3.10;;;;;;;;;;5067139;28;20506;-70
2022/03/06 13:06:47;;;;;;;4.40;3.00;;;;;;;;;;5067770;28;20046;-70
2022/03/06 13:09:20;;;;;;;6.25;2.90;;;;;;;;;;5068156;28;20028;-69
2022/03/06 13:11:49;;;;;;;6.43;3.03;;;;;;;;;;5061997;28;20465;-71
2022/03/06 13:14:15;;;;;;;5.57;3.30;;;;;;;;;;5048340;28;20028;-70
2022/03/06 13:16:40;;;;;;;7.03;3.22;;;;;;;;;;5067306;28;20032;-70
2022/03/06 13:19:07;;;;;;;4.70;3.00;;;;;;;;;;5065092;28;20485;-70
2022/03/06 13:21:37;;;;;;;5.60;3.08;;;;;;;;;;5067211;28;20027;-70
2022/03/06 13:24:08;;;;;;;5.68;3.28;;;;;;;;;;5066672;28;20066;-70
2022/03/06 13:26:33;;;;;;;7.63;3.80;;;;;;;;;;5066697;28;20080;-71
2022/03/06 13:28:59;;;;;;;5.70;3.45;;;;;;;;;;5065178;28;20020;-70
2022/03/06 13:31:25;;;;;;;4.82;3.20;;;;;;;;;;5067277;28;20012;-70
2022/03/06 13:34:01;;;;;;;8.25;3.90;;;;;;;;;;5066403;28;20024;-70
2022/03/06 13:36:27;;;;;;;6.65;3.33;;;;;;;;;;5066730;28;20475;-70
2022/03/06 13:38:59;;;;;;;6.38;3.28;;;;;;;;;;5067300;28;20032;-68
2022/03/06 13:41:25;;;;;;;4.43;3.10;;;;;;;;;;5067628;28;20039;-69
2022/03/06 13:43:51;;;;;;;6.95;3.65;;;;;;;;;;5068281;28;20128;-69
2022/03/06 13:46:16;;;;;;;5.70;3.13;;;;;;;;;;5066988;28;20062;-68
2022/03/06 13:48:42;;;;;;;5.75;3.17;;;;;;;;;;5066528;28;20510;-70
2022/03/06 13:51:20;;;;;;;5.75;3.50;;;;;;;;;;5067670;28;20024;-69
2022/03/06 13:53:53;;;;;;;5.63;3.08;;;;;;;;;;5067522;28;20495;-69
2022/03/06 13:56:26;;;;;;;7.72;3.30;;;;;;;;;;5067716;28;20032;-68
2022/03/06 13:58:53;;;;;;;6.15;3.25;;;;;;;;;;5065435;28;20077;-69
2022/03/06 14:01:19;;;;;;;50.63;23.92;;;;;;;;;;5066518;28;20078;-68
2022/03/06 14:03:44;;;;;;;10.32;4.60;;;;;;;;;;5067043;28;20123;-69
2022/03/06 14:06:09;;;;;;;5.88;3.17;;;;;;;;;;5072156;28;20106;-69
2022/03/06 14:08:42;;;;;;;6.10;3.00;;;;;;;;;;5071690;28;20028;-68
2022/03/06 14:11:08;;;;;;;5.15;2.75;;;;;;;;;;5071315;28;20053;-68
2022/03/06 14:13:41;;;;;;;4.40;2.78;;;;;;;;;;5071089;28;20028;-69
2022/03/06 14:16:11;;;;;;;6.88;3.15;;;;;;;;;;5071519;28;20225;-69
2022/03/06 14:18:41;;;;;;;5.72;3.35;;;;;;;;;;5070791;28;20177;-70
2022/03/06 14:21:16;;;;;;;7.90;3.03;;;;;;;;;;5071528;28;20632;-69
2022/03/06 14:23:41;;;;;;;6.93;2.90;;;;;;;;;;5071501;28;20035;-69
2022/03/06 14:26:06;;;;;;;6.95;3.15;;;;;;;;;;5071717;28;20032;-68
2022/03/06 14:28:32;;;;;;;6.32;3.30;;;;;;;;;;5070361;28;20529;-69
2022/03/06 14:30:58;;;;;;;9.15;3.00;;;;;;;;;;5071459;28;20136;-69